Time;durP1;ratioP1;P1;durP2;ratioP2;P2;SDS_P1;SDS_P2;PMS_P1;PMS_P2;Temp;Humidity;BMP_temperature;BMP_pressure;BME280_temperature;BME280_humidity;BME280_pressure;Samples;Min_cycle;Max_cycle;Signal;HPM_P1;HPM_P2
2023/06/07 00:00:14;;;;;;;9.90;4.13;;;18.40;99.90;;;;;;5053961;28;20169;-59
2023/06/07 00:02:41;;;;;;;10.90;4.07;;;18.40;99.90;;;;;;5072106;28;20197;-59
2023/06/07 00:05:07;;;;;;;10.90;4.40;;;18.30;99.90;;;;;;5088266;28;20538;-60
2023/06/07 00:07:35;;;;;;;8.07;3.93;;;18.40;99.90;;;;;;5054341;28;20188;-59
2023/06/07 00:10:02;;;;;;;9.50;3.97;;;18.30;99.90;;;;;;5089746;28;20211;-59
2023/06/07 00:12:28;;;;;;;9.47;3.57;;;18.30;99.90;;;;;;5053749;28;20168;-60
2023/06/07 00:14:54;;;;;;;6.77;3.70;;;18.30;99.90;;;;;;5055773;28;20303;-60
2023/06/07 00:17:20;;;;;;;10.53;5.00;;;18.30;99.90;;;;;;5073504;28;20176;-59
2023/06/07 00:19:46;;;;;;;13.87;4.27;;;18.30;99.90;;;;;;5073092;28;20161;-60
2023/06/07 00:22:12;;;;;;;8.33;4.37;;;18.20;99.90;;;;;;5054784;28;20249;-60
2023/06/07 00:24:39;;;;;;;8.70;4.07;;;18.10;99.90;;;;;;5055310;28;20165;-60
2023/06/07 00:27:04;;;;;;;11.07;5.10;;;18.10;99.90;;;;;;5055971;28;20524;-60
2023/06/07 00:29:30;;;;;;;9.03;4.70;;;18.10;99.90;;;;;;5054440;28;20351;-60
2023/06/07 00:31:56;;;;;;;12.30;4.33;;;18.00;99.90;;;;;;5055438;28;20180;-59
2023/06/07 00:34:21;;;;;;;13.93;5.60;;;17.90;99.90;;;;;;5053741;28;20197;-59
2023/06/07 00:36:47;;;;;;;13.63;3.93;;;18.00;99.90;;;;;;5054090;28;20173;-59
2023/06/07 00:39:13;;;;;;;10.77;3.73;;;18.00;99.90;;;;;;5053853;28;20170;-59
2023/06/07 00:41:39;;;;;;;8.53;3.63;;;18.00;99.90;;;;;;5054242;28;20328;-59
2023/06/07 00:44:04;;;;;;;9.33;4.63;;;17.90;99.90;;;;;;5053857;28;20184;-59
2023/06/07 00:46:31;;;;;;;10.03;4.03;;;17.80;99.90;;;;;;5055099;28;20268;-59
2023/06/07 00:48:57;;;;;;;9.03;3.70;;;17.60;99.90;;;;;;5053823;28;20174;-59
2023/06/07 00:51:23;;;;;;;10.13;3.80;;;17.50;99.90;;;;;;5052789;28;20623;-60
2023/06/07 00:53:51;;;;;;;10.27;4.53;;;17.50;99.90;;;;;;5051589;28;20193;-59
2023/06/07 00:56:17;;;;;;;8.83;4.67;;;17.50;99.90;;;;;;5052100;28;20176;-59
2023/06/07 00:58:45;;;;;;;12.27;3.90;;;17.50;99.90;;;;;;5051698;28;20165;-60
2023/06/07 01:01:11;;;;;;;8.67;4.20;;;17.50;99.90;;;;;;5051431;28;20577;-58
2023/06/07 01:03:37;;;;;;;12.77;4.87;;;17.40;99.90;;;;;;5052063;28;20280;-60
2023/06/07 01:06:03;;;;;;;11.97;4.03;;;17.30;99.90;;;;;;5053636;28;20216;-60
2023/06/07 01:08:30;;;;;;;8.60;3.83;;;17.20;99.90;;;;;;5053536;28;20184;-58
2023/06/07 01:10:59;;;;;;;9.93;4.33;;;17.30;99.90;;;;;;5054235;28;20292;-59
2023/06/07 01:13:25;;;;;;;9.53;4.13;;;17.30;99.90;;;;;;5053454;28;20193;-60
2023/06/07 01:15:51;;;;;;;9.43;4.33;;;17.20;99.90;;;;;;5053191;28;20182;-59
2023/06/07 01:18:18;;;;;;;8.23;4.00;;;17.10;99.90;;;;;;5052217;28;20404;-60
2023/06/07 01:20:53;;;;;;;10.03;4.50;;;17.10;99.90;;;;;;5052655;28;20221;-59
2023/06/07 01:23:28;;;;;;;10.73;4.40;;;17.10;99.90;;;;;;5053880;28;20221;-59
2023/06/07 01:25:57;;;;;;;12.33;4.27;;;17.00;99.90;;;;;;5052880;28;20172;-60
2023/06/07 01:28:24;;;;;;;11.03;4.90;;;17.00;99.90;;;;;;5070353;28;20170;-59
2023/06/07 01:30:51;;;;;;;10.80;4.33;;;16.90;99.90;;;;;;5053824;28;20787;-60
2023/06/07 01:33:17;;;;;;;8.60;4.47;;;16.70;99.90;;;;;;5054072;28;20177;-58
2023/06/07 01:35:44;;;;;;;9.27;3.80;;;16.80;99.90;;;;;;5055584;28;20166;-60
2023/06/07 01:38:10;;;;;;;10.83;3.93;;;16.60;99.90;;;;;;5055233;28;20177;-60
2023/06/07 01:40:38;;;;;;;8.37;4.43;;;16.70;99.90;;;;;;5054996;28;20467;-59
2023/06/07 01:43:05;;;;;;;11.80;4.30;;;16.60;99.90;;;;;;5055097;28;20169;-60
2023/06/07 01:45:31;;;;;;;11.43;4.40;;;16.60;99.90;;;;;;5053952;28;20217;-59
2023/06/07 01:47:57;;;;;;;8.57;4.03;;;16.60;99.90;;;;;;5053461;28;20234;-58
2023/06/07 01:50:23;;;;;;;10.50;4.60;;;16.60;99.90;;;;;;5053946;28;20177;-59
2023/06/07 01:52:49;;;;;;;11.77;4.10;;;16.50;99.90;;;;;;5053994;28;20498;-58
2023/06/07 01:55:16;;;;;;;16.43;5.27;;;16.40;99.90;;;;;;5054242;28;20205;-61
2023/06/07 01:58:03;;;;;;;10.27;4.43;;;16.30;99.90;;;;;;5052876;28;20181;-59
2023/06/07 02:00:50;;;;;;;8.53;4.23;;;16.20;99.90;;;;;;5053829;28;20524;-59
2023/06/07 02:03:26;;;;;;;14.67;5.10;;;16.20;99.90;;;;;;5052223;28;20366;-59
2023/06/07 02:05:56;;;;;;;14.40;4.90;;;16.20;99.90;;;;;;5053869;28;20525;-59
2023/06/07 02:08:33;;;;;;;14.13;5.20;;;16.20;99.90;;;;;;5056117;28;20244;-60
2023/06/07 02:11:01;;;;;;;12.70;4.83;;;16.20;99.90;;;;;;5054814;28;20193;-60
2023/06/07 02:13:29;;;;;;;17.87;4.70;;;16.20;99.90;;;;;;5053613;28;20201;-60
2023/06/07 02:15:55;;;;;;;13.67;5.10;;;16.20;99.90;;;;;;5051962;28;20170;-60
2023/06/07 02:18:21;;;;;;;14.20;4.87;;;16.20;99.90;;;;;;5051761;28;20173;-56
2023/06/07 02:20:47;;;;;;;17.30;4.73;;;16.00;99.90;;;;;;5050447;28;20182;-59
2023/06/07 02:23:13;;;;;;;18.03;5.10;;;16.00;99.90;;;;;;5049662;28;20561;-59
2023/06/07 02:25:39;;;;;;;12.73;4.27;;;16.00;99.90;;;;;;5050103;28;20396;-59
2023/06/07 02:28:04;;;;;;;10.80;4.50;;;16.00;99.90;;;;;;5048033;28;20268;-59
2023/06/07 02:30:30;;;;;;;17.70;4.80;;;16.00;99.90;;;;;;5049312;28;20518;-59
2023/06/07 02:32:56;;;;;;;14.20;4.60;;;16.00;99.90;;;;;;5052828;28;20264;-59
2023/06/07 02:35:22;;;;;;;13.10;5.00;;;16.00;99.90;;;;;;5051641;28;20211;-59
2023/06/07 02:37:48;;;;;;;11.73;4.20;;;15.90;99.90;;;;;;5052531;28;20177;-60
2023/06/07 02:40:14;;;;;;;12.90;4.37;;;15.90;99.90;;;;;;5053634;28;20170;-60
2023/06/07 02:42:47;;;;;;;10.43;4.33;;;15.90;99.90;;;;;;5052441;28;20640;-59
2023/06/07 02:45:13;;;;;;;11.47;4.53;;;15.90;99.90;;;;;;5054851;28;20243;-58
2023/06/07 02:47:38;;;;;;;15.50;4.93;;;15.80;99.90;;;;;;5054258;28;20178;-60
2023/06/07 02:50:06;;;;;;;12.73;3.93;;;15.80;99.90;;;;;;5054024;28;20169;-60
2023/06/07 02:52:34;;;;;;;12.70;5.03;;;15.70;99.90;;;;;;5054677;28;20174;-61
2023/06/07 02:55:00;;;;;;;15.60;4.77;;;15.70;99.90;;;;;;5053128;28;20270;-61
2023/06/07 02:57:26;;;;;;;12.27;5.07;;;15.70;99.90;;;;;;5052799;28;20177;-59
2023/06/07 02:59:53;;;;;;;13.23;4.53;;;15.60;99.90;;;;;;5052955;28;20533;-59
2023/06/07 03:02:19;;;;;;;16.30;4.77;;;15.50;99.90;;;;;;5053436;28;20178;-60
2023/06/07 03:04:46;;;;;;;12.73;5.30;;;15.60;99.90;;;;;;5054224;28;20238;-56
2023/06/07 03:07:12;;;;;;;15.57;4.70;;;15.50;99.90;;;;;;5053471;28;20165;-59
2023/06/07 03:09:38;;;;;;;14.17;5.47;;;15.50;99.90;;;;;;5053667;28;20170;-60
2023/06/07 03:12:05;;;;;;;18.33;5.23;;;15.50;99.90;;;;;;5053217;28;20177;-59
2023/06/07 03:14:30;;;;;;;21.63;6.30;;;15.40;99.90;;;;;;5053456;28;20207;-60
2023/06/07 03:16:56;;;;;;;10.33;4.43;;;15.30;99.90;;;;;;5053103;28;20169;-58
2023/06/07 03:19:21;;;;;;;22.13;6.47;;;15.30;99.90;;;;;;5052223;28;20241;-59
2023/06/07 03:21:47;;;;;;;12.70;5.73;;;15.30;99.90;;;;;;5052704;28;20497;-60
2023/06/07 03:24:13;;;;;;;15.13;5.13;;;15.20;99.90;;;;;;5051602;28;20166;-60
2023/06/07 03:26:39;;;;;;;14.03;6.00;;;15.30;99.90;;;;;;5051618;28;20184;-59
2023/06/07 03:29:05;;;;;;;16.30;4.60;;;15.20;99.90;;;;;;5051355;28;20233;-59
2023/06/07 03:31:31;;;;;;;10.33;5.10;;;15.20;99.90;;;;;;5051904;28;20185;-59
2023/06/07 03:33:58;;;;;;;10.67;4.37;;;15.10;99.90;;;;;;5053076;28;20209;-57
2023/06/07 03:36:28;;;;;;;11.70;5.27;;;15.20;99.90;;;;;;5052990;28;20564;-59
2023/06/07 03:39:19;;;;;;;13.83;4.60;;;15.10;99.90;;;;;;5054799;28;20611;-59
2023/06/07 03:41:45;;;;;;;12.10;4.60;;;15.10;99.90;;;;;;5057753;28;20166;-59
2023/06/07 03:44:11;;;;;;;13.63;4.87;;;15.10;99.90;;;;;;5056507;28;20227;-59
2023/06/07 03:46:37;;;;;;;10.17;3.90;;;15.00;99.90;;;;;;5055737;28;20488;-60
2023/06/07 03:49:02;;;;;;;15.03;5.40;;;15.00;99.90;;;;;;5056306;28;20540;-59
2023/06/07 03:51:29;;;;;;;19.50;5.37;;;14.90;99.90;;;;;;5055055;28;20613;-60
2023/06/07 03:53:54;;;;;;;18.83;6.00;;;15.00;99.90;;;;;;5056166;28;20219;-59
2023/06/07 03:56:21;;;;;;;14.93;5.60;;;15.00;99.90;;;;;;5055517;28;20165;-60
2023/06/07 03:58:47;;;;;;;16.97;4.70;;;15.00;99.90;;;;;;5056774;28;20252;-60
2023/06/07 04:01:13;;;;;;;20.10;5.37;;;14.90;99.90;;;;;;5054464;28;20181;-59
2023/06/07 04:03:39;;;;;;;18.07;5.80;;;14.70;99.90;;;;;;5054819;28;20170;-59
2023/06/07 04:06:05;;;;;;;17.37;5.33;;;14.70;99.90;;;;;;5054817;28;20157;-60
2023/06/07 04:08:30;;;;;;;21.63;5.70;;;14.90;99.90;;;;;;5054265;28;20166;-60
2023/06/07 04:10:56;;;;;;;15.53;4.77;;;14.90;99.90;;;;;;5053390;28;20165;-59
2023/06/07 04:13:22;;;;;;;18.73;5.40;;;14.90;99.90;;;;;;5051737;28;20199;-60
2023/06/07 04:15:47;;;;;;;11.77;4.73;;;14.90;99.90;;;;;;5050480;28;20230;-58
2023/06/07 04:18:13;;;;;;;15.27;4.83;;;14.90;99.90;;;;;;5050990;28;20169;-60
2023/06/07 04:20:42;;;;;;;14.73;5.37;;;14.90;99.90;;;;;;5048829;28;20277;-60
2023/06/07 04:23:07;;;;;;;16.17;5.00;;;14.90;99.90;;;;;;5048745;28;20177;-58
2023/06/07 04:25:33;;;;;;;15.27;4.60;;;14.90;99.90;;;;;;5048477;28;20417;-58
2023/06/07 04:28:00;;;;;;;17.27;4.90;;;15.00;99.90;;;;;;5047727;28;20174;-60
2023/06/07 04:30:42;;;;;;;15.07;5.20;;;15.00;99.90;;;;;;5049508;28;20220;-60
2023/06/07 04:33:10;;;;;;;16.13;4.23;;;15.00;99.90;;;;;;5050326;28;20284;-59
2023/06/07 04:35:42;;;;;;;13.13;5.03;;;15.00;99.90;;;;;;5049826;28;20207;-59
2023/06/07 04:38:25;;;;;;;15.37;4.57;;;15.00;99.90;;;;;;5052021;28;20256;-58
2023/06/07 04:40:51;;;;;;;15.13;5.40;;;14.90;99.90;;;;;;5051082;28;20544;-59
2023/06/07 04:43:18;;;;;;;15.90;4.67;;;15.00;99.90;;;;;;5051398;28;20196;-60
2023/06/07 04:45:44;;;;;;;14.27;4.97;;;14.90;99.90;;;;;;5051399;28;20169;-60
2023/06/07 04:48:13;;;;;;;14.43;5.57;;;14.90;99.90;;;;;;5050636;28;20166;-58
2023/06/07 04:50:42;;;;;;;14.17;5.33;;;14.90;99.90;;;;;;5048557;28;20415;-58
2023/06/07 04:53:10;;;;;;;14.67;5.30;;;14.80;99.90;;;;;;5051060;28;20254;-60
2023/06/07 04:55:37;;;;;;;17.77;6.73;;;14.90;99.90;;;;;;5050708;28;20169;-59
2023/06/07 04:58:04;;;;;;;15.50;6.87;;;14.90;99.90;;;;;;5048041;28;20169;-60
2023/06/07 05:00:33;;;;;;;12.33;5.70;;;15.00;99.90;;;;;;5047419;28;20243;-59
2023/06/07 05:03:08;;;;;;;10.97;4.97;;;15.00;99.90;;;;;;5047754;28;20227;-60
2023/06/07 05:05:34;;;;;;;13.00;5.13;;;15.10;99.90;;;;;;5048325;28;20172;-59
2023/06/07 05:07:59;;;;;;;11.83;5.60;;;15.10;99.90;;;;;;5047613;28;20178;-59
2023/06/07 05:10:25;;;;;;;13.77;6.00;;;15.00;99.90;;;;;;5046887;28;20280;-58
2023/06/07 05:12:51;;;;;;;15.10;6.43;;;15.00;99.90;;;;;;5047319;28;20177;-59
2023/06/07 05:15:17;;;;;;;11.87;6.43;;;15.00;99.90;;;;;;5046728;28;20212;-59
2023/06/07 05:17:44;;;;;;;14.43;6.83;;;15.00;99.90;;;;;;5044780;28;20182;-59
2023/06/07 05:20:13;;;;;;;14.63;6.90;;;14.90;99.90;;;;;;5044296;28;20221;-57
2023/06/07 05:22:39;;;;;;;15.10;7.50;;;14.80;99.90;;;;;;5043711;28;20456;-58
2023/06/07 05:25:06;;;;;;;10.83;6.73;;;14.80;99.90;;;;;;5042483;28;20541;-59
2023/06/07 05:27:32;;;;;;;12.77;7.17;;;14.70;99.90;;;;;;5042306;28;20547;-59
2023/06/07 05:29:58;;;;;;;16.87;7.80;;;14.60;99.90;;;;;;5041666;28;20865;-59
2023/06/07 05:32:23;;;;;;;15.97;7.00;;;14.60;99.90;;;;;;5043196;28;20236;-59
2023/06/07 05:34:51;;;;;;;10.77;6.43;;;14.50;99.90;;;;;;5044629;28;20476;-59
2023/06/07 05:37:18;;;;;;;13.23;7.57;;;14.40;99.90;;;;;;5042751;28;20416;-59
2023/06/07 05:39:45;;;;;;;15.87;7.50;;;14.50;99.90;;;;;;5040460;28;20556;-60
2023/06/07 05:42:11;;;;;;;18.23;7.50;;;14.50;99.90;;;;;;5040351;28;20320;-60
2023/06/07 05:44:37;;;;;;;11.27;6.17;;;14.40;99.90;;;;;;5041559;28;20169;-57
2023/06/07 05:47:03;;;;;;;15.10;6.83;;;14.40;99.90;;;;;;5041120;28;20569;-58
2023/06/07 05:49:29;;;;;;;13.97;6.27;;;14.50;99.90;;;;;;5042535;28;20189;-59
2023/06/07 05:51:55;;;;;;;10.20;5.40;;;14.50;99.90;;;;;;5043072;28;20162;-59
2023/06/07 05:54:21;;;;;;;8.13;5.37;;;14.50;99.90;;;;;;5042542;28;20277;-59
2023/06/07 05:56:46;;;;;;;12.70;6.70;;;14.60;99.90;;;;;;5041284;28;20747;-59
2023/06/07 05:59:12;;;;;;;9.20;6.63;;;14.40;99.90;;;;;;5041436;28;20522;-57
2023/06/07 06:01:37;;;;;;;8.40;6.00;;;14.50;99.90;;;;;;5038552;28;20177;-60
2023/06/07 06:04:03;;;;;;;9.73;6.37;;;14.50;99.90;;;;;;5040193;28;20208;-59
2023/06/07 06:06:29;;;;;;;7.27;5.13;;;14.50;99.90;;;;;;5039561;28;20173;-57
2023/06/07 06:08:54;;;;;;;8.13;5.80;;;14.50;99.90;;;;;;5040349;28;20454;-60
2023/06/07 06:11:20;;;;;;;9.27;5.30;;;14.60;99.90;;;;;;5038497;28;20556;-59
2023/06/07 06:13:48;;;;;;;10.20;5.97;;;14.50;99.90;;;;;;5038998;28;20282;-60
2023/06/07 06:16:14;;;;;;;10.57;4.73;;;14.50;99.90;;;;;;5039501;28;20166;-60
2023/06/07 06:18:41;;;;;;;8.93;5.27;;;14.40;99.90;;;;;;5035930;28;20191;-60
2023/06/07 06:21:08;;;;;;;11.70;5.53;;;14.50;99.90;;;;;;5035018;28;20466;-62
2023/06/07 06:23:34;;;;;;;6.90;4.80;;;14.40;99.90;;;;;;5033983;28;20264;-58
2023/06/07 06:26:00;;;;;;;7.97;4.93;;;14.50;99.90;;;;;;5033570;28;20192;-60
2023/06/07 06:28:25;;;;;;;6.17;4.40;;;14.50;99.90;;;;;;5035936;28;20459;-60
2023/06/07 06:30:51;;;;;;;8.27;4.37;;;14.40;99.90;;;;;;5034642;28;20233;-61
2023/06/07 06:33:17;;;;;;;10.00;4.57;;;14.50;99.90;;;;;;5034999;28;20205;-60
2023/06/07 06:35:42;;;;;;;6.67;5.43;;;14.50;99.90;;;;;;5033465;28;20434;-60
2023/06/07 06:38:08;;;;;;;7.13;4.67;;;14.50;99.90;;;;;;5032725;28;20427;-60
2023/06/07 06:40:33;;;;;;;8.43;5.37;;;14.60;99.90;;;;;;5035410;28;20454;-59
2023/06/07 06:43:00;;;;;;;8.77;4.30;;;14.60;99.90;;;;;;5033397;28;20260;-59
2023/06/07 06:45:26;;;;;;;9.60;4.83;;;14.70;99.90;;;;;;5032972;28;20200;-60
2023/06/07 06:47:51;;;;;;;5.53;4.33;;;14.80;99.90;;;;;;5033143;28;20271;-60
2023/06/07 06:50:17;;;;;;;6.37;4.13;;;14.80;99.90;;;;;;5032367;28;20374;-59
2023/06/07 06:52:43;;;;;;;4.57;3.90;;;14.90;99.90;;;;;;5032882;28;20169;-59
2023/06/07 06:55:09;;;;;;;9.47;3.97;;;15.00;99.90;;;;;;5033702;28;20358;-60
2023/06/07 06:57:35;;;;;;;8.37;5.00;;;15.00;99.90;;;;;;5034384;28;20161;-59
2023/06/07 07:00:04;;;;;;;7.23;4.87;;;15.00;99.90;;;;;;5033638;28;20154;-59
2023/06/07 07:02:30;;;;;;;6.23;4.20;;;14.90;99.90;;;;;;5033053;28;20261;-59
2023/06/07 07:04:57;;;;;;;7.40;4.13;;;15.00;99.90;;;;;;5033180;28;20173;-60
2023/06/07 07:07:23;;;;;;;6.90;4.20;;;15.10;99.90;;;;;;5036135;28;20235;-60
2023/06/07 07:09:49;;;;;;;5.27;3.87;;;15.10;99.90;;;;;;5036039;28;20529;-59
2023/06/07 07:12:15;;;;;;;6.77;4.17;;;15.20;99.90;;;;;;5037797;28;20460;-59
2023/06/07 07:14:40;;;;;;;6.37;4.60;;;15.20;99.90;;;;;;5043159;28;20205;-59
2023/06/07 07:17:06;;;;;;;5.30;3.77;;;15.30;99.90;;;;;;5044585;28;20173;-60
2023/06/07 07:19:31;;;;;;;6.40;3.87;;;15.30;99.90;;;;;;5043706;28;20165;-59
2023/06/07 07:21:57;;;;;;;5.47;3.50;;;15.30;99.90;;;;;;5045655;28;20177;-60
2023/06/07 07:24:23;;;;;;;6.93;4.33;;;15.30;99.90;;;;;;5049198;28;20264;-60
2023/06/07 07:26:48;;;;;;;4.50;3.70;;;15.30;99.90;;;;;;5047040;28;20177;-60
2023/06/07 07:29:14;;;;;;;5.93;4.40;;;15.30;99.90;;;;;;5047171;28;20616;-60
2023/06/07 07:31:39;;;;;;;8.40;5.43;;;15.30;99.90;;;;;;5047428;28;20568;-60
2023/06/07 07:34:05;;;;;;;7.13;4.50;;;15.40;99.90;;;;;;5047057;28;20209;-60
2023/06/07 07:36:33;;;;;;;4.30;3.80;;;15.50;99.90;;;;;;5046190;28;20196;-61
2023/06/07 07:39:04;;;;;;;4.70;3.20;;;15.50;99.90;;;;;;5046109;28;20235;-60
2023/06/07 07:41:33;;;;;;;6.63;4.30;;;15.50;99.90;;;;;;5044845;28;20166;-60
2023/06/07 07:43:58;;;;;;;5.17;4.20;;;15.60;99.90;;;;;;5045721;28;20276;-60
2023/06/07 07:46:24;;;;;;;6.03;4.60;;;15.50;99.90;;;;;;5046311;28;20197;-60
2023/06/07 07:48:50;;;;;;;7.40;4.87;;;15.50;99.90;;;;;;5046069;28;20169;-61
2023/06/07 07:51:15;;;;;;;6.53;5.00;;;15.60;99.90;;;;;;5045709;28;20372;-60
2023/06/07 07:53:45;;;;;;;5.60;4.30;;;15.60;99.90;;;;;;5045883;28;20193;-60
2023/06/07 07:56:12;;;;;;;6.20;4.27;;;15.60;99.90;;;;;;5046131;28;20776;-59
2023/06/07 07:58:39;;;;;;;5.00;4.07;;;15.60;99.90;;;;;;5046788;28;20614;-60
2023/06/07 08:01:05;;;;;;;6.80;4.13;;;15.70;99.90;;;;;;5046044;28;20165;-59
2023/06/07 08:03:30;;;;;;;5.93;4.40;;;15.80;99.90;;;;;;5048589;28;20169;-59
2023/06/07 08:05:56;;;;;;;5.13;4.60;;;15.80;99.90;;;;;;5048885;28;20173;-60
2023/06/07 08:08:22;;;;;;;6.50;4.87;;;15.90;99.90;;;;;;5047585;28;20170;-60
2023/06/07 08:10:49;;;;;;;9.53;5.67;;;15.90;99.90;;;;;;5047040;28;20264;-60
2023/06/07 08:13:14;;;;;;;9.50;4.83;;;15.80;99.90;;;;;;5047104;28;20201;-60
2023/06/07 08:15:40;;;;;;;9.87;4.47;;;15.90;99.90;;;;;;5044998;28;20735;-60
2023/06/07 08:18:06;;;;;;;6.13;4.57;;;15.90;99.90;;;;;;5045996;28;20176;-59
2023/06/07 08:20:32;;;;;;;6.90;4.57;;;16.00;99.90;;;;;;5043920;28;20272;-60
2023/06/07 08:22:58;;;;;;;10.47;4.40;;;16.00;99.90;;;;;;5044221;28;20162;-59
2023/06/07 08:25:23;;;;;;;9.00;4.50;;;16.00;99.90;;;;;;5043287;28;20256;-60
2023/06/07 08:27:49;;;;;;;7.63;4.20;;;16.00;99.90;;;;;;5041327;28;20184;-60
2023/06/07 08:30:15;;;;;;;7.23;4.27;;;16.10;99.90;;;;;;5056268;28;20242;-60
2023/06/07 08:32:45;;;;;;;9.50;4.57;;;16.10;99.90;;;;;;5077122;28;20172;-60
2023/06/07 08:35:12;;;;;;;6.27;3.60;;;16.20;99.90;;;;;;5045465;28;20234;-60
2023/06/07 08:37:38;;;;;;;8.43;4.70;;;16.20;99.90;;;;;;5045836;28;20196;-59
2023/06/07 08:40:08;;;;;;;9.37;5.17;;;16.20;99.90;;;;;;5047155;28;20525;-59
2023/06/07 08:42:34;;;;;;;8.93;4.03;;;16.30;99.90;;;;;;5046314;28;20175;-59
2023/06/07 08:45:00;;;;;;;11.63;4.70;;;16.30;99.90;;;;;;5031375;28;20180;-59
2023/06/07 08:47:28;;;;;;;13.23;3.87;;;16.40;99.90;;;;;;5048951;28;20289;-60
2023/06/07 08:49:57;;;;;;;7.13;3.83;;;16.40;99.90;;;;;;5046715;28;20164;-60
2023/06/07 08:52:24;;;;;;;6.37;3.73;;;16.50;99.90;;;;;;5047471;28;20200;-60
2023/06/07 08:54:54;;;;;;;9.90;3.13;;;16.50;99.90;;;;;;5050042;28;20519;-60
2023/06/07 08:57:20;;;;;;;12.87;4.67;;;16.50;99.90;;;;;;5034147;28;20556;-59
2023/06/07 08:59:48;;;;;;;8.37;4.33;;;16.60;99.90;;;;;;5048851;28;20168;-59
2023/06/07 09:02:16;;;;;;;13.07;4.57;;;16.60;99.90;;;;;;5048277;28;20165;-60
2023/06/07 09:04:43;;;;;;;8.70;4.17;;;16.60;99.90;;;;;;5067448;28;20164;-59
2023/06/07 09:07:11;;;;;;;9.03;4.57;;;16.70;99.90;;;;;;5065356;28;20530;-59
2023/06/07 09:09:39;;;;;;;13.63;4.37;;;16.70;99.90;;;;;;5047822;28;20415;-59
2023/06/07 09:12:06;;;;;;;8.90;3.80;;;16.80;99.90;;;;;;5065034;28;20180;-58
2023/06/07 09:14:32;;;;;;;12.30;4.33;;;17.00;99.90;;;;;;5044531;28;20813;-60
2023/06/07 09:16:59;;;;;;;9.37;4.30;;;17.00;99.90;;;;;;5029274;28;20722;-59
2023/06/07 09:19:41;;;;;;;7.97;4.57;;;17.00;99.90;;;;;;5045592;28;20172;-57
2023/06/07 09:22:17;;;;;;;8.77;4.10;;;17.10;99.90;;;;;;5044381;28;20967;-59
2023/06/07 09:24:43;;;;;;;9.93;3.83;;;17.10;99.90;;;;;;5044387;28;20845;-58
2023/06/07 09:27:13;;;;;;;8.10;4.27;;;17.10;99.90;;;;;;5043723;28;20262;-58
2023/06/07 09:29:43;;;;;;;8.20;4.17;;;17.20;99.90;;;;;;5061674;28;20243;-59
2023/06/07 09:32:25;;;;;;;9.20;4.03;;;17.20;99.90;;;;;;5045701;28;20184;-59
2023/06/07 09:34:54;;;;;;;15.00;5.20;;;17.30;99.90;;;;;;5065386;28;20627;-58
2023/06/07 09:37:51;;;;;;;6.57;4.83;;;17.30;99.90;;;;;;5048877;28;20659;-58
2023/06/07 09:40:17;;;;;;;7.93;4.33;;;17.40;99.90;;;;;;5050895;28;20176;-54
2023/06/07 09:42:43;;;;;;;11.10;5.37;;;17.40;99.90;;;;;;5051093;28;20221;-56
2023/06/07 09:45:14;;;;;;;7.87;5.20;;;17.40;99.90;;;;;;5068573;28;20169;-58
2023/06/07 09:47:42;;;;;;;13.00;4.50;;;17.50;99.90;;;;;;5051349;28;20751;-58
2023/06/07 09:50:13;;;;;;;8.43;4.40;;;17.50;99.90;;;;;;5051260;28;20181;-58
2023/06/07 09:52:39;;;;;;;9.00;5.23;;;17.60;99.90;;;;;;5085368;28;20199;-58
2023/06/07 09:55:24;;;;;;;9.57;4.97;;;17.60;99.90;;;;;;5068527;28;20261;-58
2023/06/07 09:57:50;;;;;;;10.10;4.90;;;17.70;99.90;;;;;;5051870;28;20278;-57
2023/06/07 10:00:18;;;;;;;11.33;5.57;;;17.80;99.90;;;;;;5052421;28;20201;-58
2023/06/07 10:02:46;;;;;;;8.93;4.90;;;17.80;99.90;;;;;;5071853;28;20169;-58
2023/06/07 10:05:13;;;;;;;8.53;5.23;;;17.90;99.90;;;;;;5053830;28;20177;-58
2023/06/07 10:07:44;;;;;;;8.50;5.07;;;18.00;99.90;;;;;;5036092;28;20327;-58
2023/06/07 10:10:14;;;;;;;7.83;4.73;;;18.00;99.90;;;;;;5052582;28;20169;-55
2023/06/07 10:12:41;;;;;;;11.90;5.27;;;18.10;99.90;;;;;;5052801;28;20173;-56
2023/06/07 10:15:14;;;;;;;10.90;6.23;;;18.10;99.90;;;;;;5035432;28;20205;-58
2023/06/07 10:18:00;;;;;;;13.83;5.40;;;18.20;99.90;;;;;;5035247;28;20173;-56
2023/06/07 10:20:34;;;;;;;8.90;4.33;;;18.40;99.90;;;;;;5067221;28;20165;-58
2023/06/07 10:23:07;;;;;;;7.20;4.77;;;18.40;99.90;;;;;;5052765;28;20276;-58
2023/06/07 10:25:52;;;;;;;9.90;4.83;;;18.40;99.90;;;;;;5052945;28;20258;-57
2023/06/07 10:28:44;;;;;;;11.67;6.03;;;18.50;99.90;;;;;;5051008;28;20196;-58
2023/06/07 10:31:15;;;;;;;6.73;5.07;;;18.40;99.90;;;;;;5049006;28;20560;-58
2023/06/07 10:33:42;;;;;;;11.20;4.67;;;18.50;99.90;;;;;;5050826;28;20436;-58
2023/06/07 10:36:08;;;;;;;6.53;5.23;;;18.50;99.90;;;;;;5050179;28;20199;-58
2023/06/07 10:38:34;;;;;;;7.87;5.33;;;18.60;99.90;;;;;;5048752;28;20169;-58
2023/06/07 10:41:03;;;;;;;6.60;4.37;;;18.60;99.90;;;;;;5046803;28;20220;-56
2023/06/07 10:43:30;;;;;;;8.33;5.23;;;18.60;99.90;;;;;;5029026;28;20174;-57
2023/06/07 10:46:23;;;;;;;8.77;5.00;;;18.70;99.90;;;;;;5045676;28;20264;-54
2023/06/07 10:48:51;;;;;;;14.37;4.60;;;18.80;99.90;;;;;;5046168;28;20165;-58
2023/06/07 10:51:51;;;;;;;10.07;5.00;;;18.80;99.90;;;;;;5046408;28;20173;-58
2023/06/07 10:54:34;;;;;;;8.63;5.47;;;18.90;99.90;;;;;;4985377;28;20310;-57
2023/06/07 10:57:04;;;;;;;7.13;4.53;;;19.00;99.90;;;;;;4969445;28;20171;-57
2023/06/07 10:59:30;;;;;;;10.17;4.57;;;19.00;99.90;;;;;;5032436;28;20792;-58
2023/06/07 11:02:24;;;;;;;18.30;4.73;;;19.30;99.90;;;;;;5046541;28;20169;-58
2023/06/07 11:04:54;;;;;;;13.00;4.80;;;19.30;99.90;;;;;;5044971;28;20235;-58
2023/06/07 11:07:28;;;;;;;10.90;5.23;;;19.40;99.90;;;;;;5041905;28;20197;-58
2023/06/07 11:10:03;;;;;;;16.73;4.27;;;19.40;99.90;;;;;;5041467;28;20729;-58
2023/06/07 11:12:54;;;;;;;9.13;4.23;;;19.60;99.90;;;;;;5041743;28;20168;-58
2023/06/07 11:15:38;;;;;;;6.17;3.87;;;19.50;99.90;;;;;;5027057;28;20228;-58
2023/06/07 11:18:07;;;;;;;8.83;4.30;;;19.50;99.90;;;;;;5042211;28;20222;-58
2023/06/07 11:20:44;;;;;;;11.33;4.07;;;19.60;99.90;;;;;;5042878;28;20169;-58
2023/06/07 11:23:29;;;;;;;8.07;4.40;;;19.60;99.90;;;;;;5043259;28;20168;-56
2023/06/07 11:26:12;;;;;;;10.07;3.60;;;19.60;99.90;;;;;;5041022;28;20205;-59
2023/06/07 11:28:40;;;;;;;9.47;4.73;;;19.60;99.90;;;;;;5026809;28;20181;-59
2023/06/07 11:31:11;;;;;;;5.37;3.53;;;19.60;99.90;;;;;;5045824;28;20238;-59
2023/06/07 11:33:41;;;;;;;6.30;3.83;;;19.60;99.90;;;;;;5046347;28;20599;-57
2023/06/07 11:36:09;;;;;;;7.90;3.57;;;19.70;99.90;;;;;;5064095;28;20175;-57
2023/06/07 11:38:37;;;;;;;10.33;4.03;;;19.90;99.90;;;;;;5044956;28;20177;-60
2023/06/07 11:41:05;;;;;;;9.03;4.23;;;20.00;99.90;;;;;;5062112;28;20161;-59
2023/06/07 11:43:32;;;;;;;8.87;3.20;;;20.10;99.90;;;;;;5044068;28;20579;-58
2023/06/07 11:45:58;;;;;;;10.40;4.20;;;20.30;99.90;;;;;;5045087;28;20175;-59
2023/06/07 11:48:28;;;;;;;10.80;3.63;;;20.40;99.90;;;;;;5044535;28;20172;-59
2023/06/07 11:50:54;;;;;;;8.17;3.53;;;20.60;99.90;;;;;;5043826;28;20185;-59
2023/06/07 11:53:21;;;;;;;5.87;3.10;;;20.60;99.90;;;;;;5064369;28;20725;-58
2023/06/07 11:55:49;;;;;;;7.27;3.50;;;20.70;99.90;;;;;;5063625;28;20211;-59
2023/06/07 11:58:16;;;;;;;7.13;3.70;;;20.80;99.90;;;;;;5045748;28;20845;-59
2023/06/07 12:00:44;;;;;;;10.23;3.50;;;20.80;99.90;;;;;;5047530;28;20727;-60
2023/06/07 12:03:11;;;;;;;9.63;3.60;;;20.90;99.90;;;;;;5048206;28;20169;-60
2023/06/07 12:05:37;;;;;;;7.83;2.97;;;21.00;99.90;;;;;;5049802;28;20382;-60
2023/06/07 12:08:10;;;;;;;6.97;3.60;;;21.10;99.90;;;;;;5051467;28;20904;-58
2023/06/07 12:10:39;;;;;;;6.47;3.17;;;21.30;99.90;;;;;;5084630;28;20173;-59
2023/06/07 12:13:15;;;;;;;10.30;3.30;;;21.40;99.90;;;;;;5051713;28;20187;-60
2023/06/07 12:15:52;;;;;;;7.87;3.33;;;21.50;99.90;;;;;;5051667;28;20204;-60
2023/06/07 12:18:35;;;;;;;7.97;2.60;;;21.60;99.90;;;;;;5068523;28;20194;-59
2023/06/07 12:21:18;;;;;;;5.07;2.70;;;21.80;99.90;;;;;;5083695;28;20478;-60
2023/06/07 12:23:50;;;;;;;10.93;3.40;;;21.90;99.90;;;;;;5049196;28;20203;-60
2023/06/07 12:26:22;;;;;;;9.77;3.50;;;22.00;99.90;;;;;;5030449;28;20226;-60
2023/06/07 12:28:50;;;;;;;9.67;3.13;;;22.10;99.90;;;;;;5048006;28;20271;-58
2023/06/07 12:31:26;;;;;;;6.97;3.00;;;22.20;99.90;;;;;;5044135;28;20177;-60
2023/06/07 12:33:58;;;;;;;7.63;3.07;;;22.30;99.90;;;;;;5043600;28;20272;-59
2023/06/07 12:36:27;;;;;;;10.13;3.17;;;22.50;99.90;;;;;;5043710;28;20165;-58
2023/06/07 12:38:58;;;;;;;6.23;3.47;;;22.60;99.90;;;;;;5045169;28;20193;-58
2023/06/07 12:41:28;;;;;;;5.77;3.00;;;22.70;99.90;;;;;;5047832;28;20769;-57
2023/06/07 12:43:57;;;;;;;5.43;2.87;;;22.80;99.90;;;;;;5047100;28;20223;-58
2023/06/07 12:46:24;;;;;;;6.63;2.90;;;22.90;99.90;;;;;;5044922;28;20219;-57